Time;durP1;ratioP1;P1;durP2;ratioP2;P2;SDS_P1;SDS_P2;PMS_P1;PMS_P2;Temp;Humidity;BMP_temperature;BMP_pressure;BME280_temperature;BME280_humidity;BME280_pressure;Samples;Min_cycle;Max_cycle;Signal;HPM_P1;HPM_P2
2023/10/15 00:01:35;;;;;;;11.57;9.68;;;23.50;96.40;;;;;;6229306;28;89099;-67
2023/10/15 00:04:37;;;;;;;11.45;9.77;;;23.50;96.50;;;;;;6216690;28;89440;-67
2023/10/15 00:07:39;;;;;;;12.00;9.57;;;23.50;96.40;;;;;;6212062;28;89959;-68
2023/10/15 00:10:41;;;;;;;11.45;9.90;;;23.50;96.50;;;;;;6216458;28;89098;-67
2023/10/15 00:13:45;;;;;;;10.55;9.20;;;23.50;96.50;;;;;;6209039;28;91005;-67
2023/10/15 00:16:47;;;;;;;11.35;9.18;;;23.50;96.50;;;;;;6213007;28;89238;-68
2023/10/15 00:19:50;;;;;;;9.48;8.57;;;23.50;96.50;;;;;;6220764;28;89043;-68
2023/10/15 00:22:52;;;;;;;11.55;9.20;;;23.50;96.50;;;;;;6223590;28;88979;-67
2023/10/15 00:25:56;;;;;;;11.75;9.00;;;23.50;96.60;;;;;;6219130;28;91331;-67
2023/10/15 00:29:00;;;;;;;11.98;9.50;;;23.50;97.00;;;;;;6218462;28;88345;-67
2023/10/15 00:32:03;;;;;;;10.65;8.93;;;23.50;96.70;;;;;;6224130;28;88722;-67
2023/10/15 00:35:06;;;;;;;11.07;8.80;;;23.50;96.60;;;;;;6224986;28;89044;-68
2023/10/15 00:38:11;;;;;;;11.25;8.35;;;23.50;96.70;;;;;;6228025;28;90203;-68
2023/10/15 00:41:14;;;;;;;10.98;8.50;;;23.50;96.70;;;;;;6230009;28;89044;-67
2023/10/15 00:44:17;;;;;;;10.60;8.73;;;23.50;96.70;;;;;;6217626;28;89359;-67
2023/10/15 00:47:19;;;;;;;10.68;8.75;;;23.50;96.70;;;;;;6216359;28;89071;-67
2023/10/15 00:50:21;;;;;;;9.48;8.48;;;23.50;96.70;;;;;;6207085;28;89006;-67
2023/10/15 00:53:27;;;;;;;10.00;8.13;;;23.50;96.70;;;;;;6206278;28;89041;-68
2023/10/15 00:56:33;;;;;;;9.15;8.02;;;23.50;96.70;;;;;;6218500;28;89111;-69
2023/10/15 00:59:47;;;;;;;9.63;8.20;;;23.50;96.80;;;;;;6208328;28;88238;-67
2023/10/15 01:02:49;;;;;;;10.38;8.25;;;23.50;96.80;;;;;;6222269;28;89235;-67
2023/10/15 01:05:54;;;;;;;8.90;8.00;;;23.50;96.80;;;;;;6218902;28;89125;-68
2023/10/15 01:08:58;;;;;;;8.95;7.55;;;23.60;96.90;;;;;;6210499;28;90298;-67
2023/10/15 01:12:18;;;;;;;9.68;8.10;;;23.50;96.80;;;;;;6225452;28;89056;-67
2023/10/15 01:15:21;;;;;;;9.40;8.05;;;23.50;96.80;;;;;;6207464;28;89117;-66
2023/10/15 01:18:24;;;;;;;8.63;7.50;;;23.50;97.00;;;;;;6208605;28;87982;-66
2023/10/15 01:21:29;;;;;;;8.40;7.43;;;23.50;97.00;;;;;;6212551;28;87705;-67
2023/10/15 01:24:34;;;;;;;8.70;7.32;;;23.50;97.00;;;;;;6216028;28;89671;-67
2023/10/15 01:27:37;;;;;;;9.80;7.93;;;23.50;97.00;;;;;;6227667;28;88970;-67
2023/10/15 01:30:41;;;;;;;9.40;7.45;;;23.50;97.00;;;;;;6214655;28;88626;-66
2023/10/15 01:33:53;;;;;;;9.40;7.70;;;23.50;97.00;;;;;;6206971;28;89021;-67
2023/10/15 01:36:56;;;;;;;9.25;7.20;;;23.40;97.00;;;;;;6220582;28;87930;-67
2023/10/15 01:40:00;;;;;;;8.43;7.20;;;23.40;97.00;;;;;;6218461;28;89991;-67
2023/10/15 01:43:07;;;;;;;9.15;7.13;;;23.40;97.00;;;;;;6213755;28;89428;-68
2023/10/15 01:46:10;;;;;;;8.70;7.32;;;23.50;97.00;;;;;;6213136;28;89299;-67
2023/10/15 01:49:18;;;;;;;7.40;6.60;;;23.50;96.90;;;;;;6227622;28;89097;-67
2023/10/15 01:52:29;;;;;;;7.70;6.90;;;23.50;96.80;;;;;;6210446;28;89402;-67
2023/10/15 01:55:34;;;;;;;8.52;7.22;;;23.50;96.80;;;;;;6219797;28;89144;-66
2023/10/15 01:58:39;;;;;;;7.80;6.97;;;23.50;96.90;;;;;;6220642;28;87965;-68
2023/10/15 02:01:49;;;;;;;7.90;6.72;;;23.50;97.00;;;;;;6215199;28;88401;-67
2023/10/15 02:04:57;;;;;;;8.85;7.32;;;23.50;96.90;;;;;;6219290;28;89195;-67
2023/10/15 02:08:02;;;;;;;8.77;6.88;;;23.50;96.80;;;;;;6224761;28;89276;-66
2023/10/15 02:11:17;;;;;;;8.55;6.63;;;23.50;96.90;;;;;;6215950;28;90023;-66
2023/10/15 02:14:22;;;;;;;9.43;7.28;;;23.50;97.50;;;;;;6210782;28;89160;-69
2023/10/15 02:17:24;;;;;;;9.00;6.63;;;23.50;97.60;;;;;;6208827;28;89611;-69
2023/10/15 02:20:42;;;;;;;7.85;6.63;;;23.50;97.40;;;;;;6222093;28;88772;-69
2023/10/15 02:23:50;;;;;;;10.68;7.78;;;23.50;96.80;;;;;;6218168;28;89185;-68
2023/10/15 02:27:34;;;;;;;6.93;6.15;;;23.50;96.40;;;;;;6227739;28;89414;-68
2023/10/15 02:30:40;;;;;;;6.43;5.72;;;23.50;95.70;;;;;;6228063;28;89162;-68
2023/10/15 02:33:42;;;;;;;7.70;5.95;;;23.40;95.10;;;;;;6210678;28;88289;-69
2023/10/15 02:36:44;;;;;;;7.55;5.88;;;23.40;94.90;;;;;;6213422;28;89186;-68
2023/10/15 02:39:50;;;;;;;6.60;5.45;;;23.40;94.60;;;;;;6221438;28;89586;-68
2023/10/15 02:42:53;;;;;;;7.00;5.43;;;23.40;94.20;;;;;;6214095;28;90268;-68
2023/10/15 02:46:00;;;;;;;8.85;5.60;;;23.40;93.80;;;;;;6212771;28;89033;-68
2023/10/15 02:49:02;;;;;;;6.95;4.68;;;23.40;93.70;;;;;;6218498;28;89452;-68
2023/10/15 02:52:10;;;;;;;5.97;4.70;;;23.40;93.70;;;;;;6221712;28;88994;-68
2023/10/15 02:55:14;;;;;;;6.93;4.88;;;23.40;93.30;;;;;;6220706;28;89088;-68
2023/10/15 02:58:16;;;;;;;6.53;4.53;;;23.40;93.00;;;;;;6212740;28;89093;-68
2023/10/15 03:01:20;;;;;;;5.55;4.40;;;23.30;93.00;;;;;;6219772;28;89059;-68
2023/10/15 03:04:32;;;;;;;9.90;4.93;;;23.40;92.50;;;;;;6204854;28;87580;-68
2023/10/15 03:07:34;;;;;;;6.25;4.10;;;23.40;92.00;;;;;;6219745;28;89150;-69
2023/10/15 03:10:46;;;;;;;5.82;4.15;;;23.30;91.70;;;;;;6212653;28;89029;-69
2023/10/15 03:13:53;;;;;;;4.20;3.35;;;23.30;91.40;;;;;;6223201;28;90114;-68
2023/10/15 03:16:57;;;;;;;7.53;3.80;;;23.30;91.40;;;;;;6224711;28;88938;-68
2023/10/15 03:20:11;;;;;;;4.70;3.70;;;23.30;91.50;;;;;;6216631;28;88005;-69
2023/10/15 03:23:16;;;;;;;5.90;3.53;;;23.30;91.70;;;;;;6219208;28;89184;-68
2023/10/15 03:26:20;;;;;;;6.15;3.42;;;23.30;91.10;;;;;;6206684;28;89474;-68
2023/10/15 03:29:23;;;;;;;6.20;3.47;;;23.30;91.10;;;;;;6218107;28;89137;-68
2023/10/15 03:32:31;;;;;;;5.10;3.17;;;23.20;90.90;;;;;;6232371;28;88816;-68
2023/10/15 03:35:38;;;;;;;4.95;3.10;;;23.20;90.70;;;;;;6227977;28;88359;-68
2023/10/15 03:38:46;;;;;;;4.47;3.03;;;23.20;90.50;;;;;;6220547;28;88960;-68
2023/10/15 03:41:52;;;;;;;3.92;2.72;;;23.20;90.40;;;;;;6217704;28;89087;-68
2023/10/15 03:45:00;;;;;;;4.18;2.65;;;23.20;90.10;;;;;;6215562;28;89956;-68
2023/10/15 03:48:06;;;;;;;4.40;2.80;;;23.20;89.70;;;;;;6228448;28;89387;-67
2023/10/15 03:51:15;;;;;;;4.00;2.60;;;23.10;89.90;;;;;;6213682;28;88295;-68
2023/10/15 03:54:17;;;;;;;4.70;2.65;;;23.20;89.40;;;;;;6220797;28;89482;-68
2023/10/15 03:57:27;;;;;;;4.47;2.65;;;23.20;88.40;;;;;;6226686;28;89195;-68
2023/10/15 04:00:35;;;;;;;5.35;2.85;;;23.10;88.10;;;;;;6214257;28;89108;-68
2023/10/15 04:03:42;;;;;;;5.25;3.00;;;23.20;88.20;;;;;;6227556;28;89036;-68
2023/10/15 04:06:50;;;;;;;4.20;2.47;;;23.10;87.90;;;;;;6213633;28;87221;-68
2023/10/15 04:09:52;;;;;;;4.15;2.50;;;23.10;87.60;;;;;;6226146;28;88849;-68
2023/10/15 04:12:54;;;;;;;3.13;2.10;;;23.10;87.70;;;;;;6213181;28;89040;-68
2023/10/15 04:15:57;;;;;;;3.70;2.28;;;23.10;87.80;;;;;;6226337;28;89723;-68
2023/10/15 04:19:01;;;;;;;3.50;2.15;;;23.10;87.70;;;;;;6227790;28;89072;-68
2023/10/15 04:22:13;;;;;;;3.85;2.22;;;23.10;87.20;;;;;;6219521;28;89132;-68
2023/10/15 04:25:23;;;;;;;3.75;2.38;;;23.10;87.40;;;;;;6218675;28;89161;-68
2023/10/15 04:28:26;;;;;;;3.60;2.13;;;23.10;86.70;;;;;;6221347;28;89292;-68
2023/10/15 04:31:29;;;;;;;3.97;2.30;;;23.10;86.20;;;;;;6222425;28;88408;-68
2023/10/15 04:34:36;;;;;;;4.38;2.20;;;23.00;85.90;;;;;;6221022;28;89144;-68
2023/10/15 04:37:39;;;;;;;3.72;2.40;;;23.00;86.00;;;;;;6230532;28;87298;-68
2023/10/15 04:40:58;;;;;;;3.70;2.10;;;23.00;86.20;;;;;;6231375;28;88646;-68
2023/10/15 04:44:03;;;;;;;3.20;1.95;;;23.00;85.60;;;;;;6221195;28;91234;-68
2023/10/15 04:47:09;;;;;;;3.90;1.92;;;23.00;85.70;;;;;;6222068;28;90563;-68
2023/10/15 04:50:15;;;;;;;3.35;2.05;;;23.00;85.90;;;;;;6225580;28;90228;-68
2023/10/15 04:53:23;;;;;;;4.20;2.13;;;23.00;85.50;;;;;;6221059;28;89073;-68
2023/10/15 04:56:26;;;;;;;3.47;2.28;;;23.00;85.60;;;;;;6217435;28;89893;-68
2023/10/15 04:59:28;;;;;;;3.95;2.10;;;23.00;85.40;;;;;;6226683;28;89049;-68
2023/10/15 05:02:30;;;;;;;4.97;2.15;;;23.00;85.70;;;;;;6211875;28;87941;-68
2023/10/15 05:05:34;;;;;;;2.85;1.80;;;23.00;85.40;;;;;;6233548;28;89048;-68
2023/10/15 05:08:36;;;;;;;3.38;2.08;;;23.00;85.80;;;;;;6228848;28;88216;-68
2023/10/15 05:11:37;;;;;;;4.20;2.15;;;23.00;85.70;;;;;;6230993;28;89197;-68
2023/10/15 05:14:40;;;;;;;4.05;2.00;;;23.00;85.80;;;;;;6229626;28;89081;-68
2023/10/15 05:17:47;;;;;;;3.13;1.85;;;23.00;85.50;;;;;;6211967;28;90055;-68
2023/10/15 05:20:51;;;;;;;5.05;2.10;;;22.90;85.70;;;;;;6223126;28;89140;-68
2023/10/15 05:23:53;;;;;;;4.28;2.22;;;22.90;85.20;;;;;;6230240;28;88302;-68
2023/10/15 05:26:56;;;;;;;3.60;1.98;;;22.90;85.40;;;;;;6208341;28;89051;-68
2023/10/15 05:29:58;;;;;;;4.30;1.98;;;22.90;85.20;;;;;;6221337;28;89161;-68
2023/10/15 05:33:01;;;;;;;3.63;1.88;;;22.90;84.70;;;;;;6213997;28;89079;-68
2023/10/15 05:36:06;;;;;;;2.60;1.65;;;22.90;84.30;;;;;;6222531;28;89204;-68
2023/10/15 05:39:08;;;;;;;3.30;2.00;;;22.90;84.80;;;;;;6215278;28;88407;-68
2023/10/15 05:42:11;;;;;;;3.25;1.88;;;22.90;84.90;;;;;;6212289;28;89561;-68
2023/10/15 05:45:14;;;;;;;3.58;1.83;;;22.90;84.70;;;;;;6215927;28;87906;-68
2023/10/15 05:48:17;;;;;;;4.10;2.15;;;22.90;84.40;;;;;;6212709;28;90043;-68
2023/10/15 05:51:21;;;;;;;4.05;2.13;;;22.90;84.40;;;;;;6216348;28;88051;-68
2023/10/15 05:54:23;;;;;;;2.92;2.05;;;22.90;84.20;;;;;;6214903;28;88929;-68
2023/10/15 05:57:25;;;;;;;3.55;2.03;;;22.80;85.50;;;;;;6221437;28;88979;-68
2023/10/15 06:00:27;;;;;;;5.38;2.40;;;22.80;84.50;;;;;;6218666;28;89086;-68
2023/10/15 06:03:29;;;;;;;3.58;2.05;;;22.80;84.10;;;;;;6225767;28;88971;-68
2023/10/15 06:06:33;;;;;;;3.65;1.95;;;22.90;84.50;;;;;;6208918;28;88974;-68
2023/10/15 06:09:35;;;;;;;5.03;2.10;;;22.80;84.40;;;;;;6220297;28;88334;-68
2023/10/15 06:12:38;;;;;;;3.42;1.92;;;22.80;84.10;;;;;;6217048;28;88276;-68
2023/10/15 06:15:40;;;;;;;4.03;2.00;;;22.80;84.40;;;;;;6217857;28;88943;-68
2023/10/15 06:18:42;;;;;;;3.80;2.08;;;22.80;84.00;;;;;;6214767;28;90191;-68
2023/10/15 06:21:46;;;;;;;4.30;2.22;;;22.80;84.10;;;;;;6211032;28;88985;-68
2023/10/15 06:24:48;;;;;;;3.70;2.17;;;22.80;83.80;;;;;;6213541;28;89162;-68
2023/10/15 06:27:51;;;;;;;4.15;2.45;;;22.80;83.70;;;;;;6223403;28;89683;-68
2023/10/15 06:30:55;;;;;;;4.10;2.35;;;22.80;83.70;;;;;;6211614;28;87952;-68
2023/10/15 06:33:56;;;;;;;4.70;2.17;;;22.80;83.60;;;;;;6217575;28;89099;-68
2023/10/15 06:37:00;;;;;;;3.97;2.20;;;22.80;83.70;;;;;;6215035;28;88096;-68
2023/10/15 06:40:02;;;;;;;4.18;2.10;;;22.70;83.50;;;;;;6210391;28;87271;-68
2023/10/15 06:43:04;;;;;;;3.88;2.13;;;22.80;83.60;;;;;;6215209;28;89003;-68
2023/10/15 06:46:07;;;;;;;3.78;2.00;;;22.70;83.60;;;;;;6217754;28;88640;-68
2023/10/15 06:49:09;;;;;;;3.95;2.03;;;22.80;83.80;;;;;;6208245;28;89956;-68
2023/10/15 06:52:13;;;;;;;3.55;2.00;;;22.70;83.90;;;;;;6219364;28;89038;-68
2023/10/15 06:55:16;;;;;;;4.45;2.33;;;22.80;83.70;;;;;;6220359;28;88996;-68
2023/10/15 06:58:18;;;;;;;4.30;2.38;;;22.80;83.80;;;;;;6218973;28;89032;-68
2023/10/15 07:01:20;;;;;;;3.65;2.15;;;22.70;84.00;;;;;;6209021;28;88962;-68
2023/10/15 07:04:24;;;;;;;3.42;2.08;;;22.70;83.70;;;;;;6223398;28;89509;-68
2023/10/15 07:07:27;;;;;;;3.28;2.20;;;22.70;83.80;;;;;;6212583;28;89202;-68
2023/10/15 07:10:29;;;;;;;3.60;2.38;;;22.70;83.60;;;;;;6209299;28;87191;-68
2023/10/15 07:13:31;;;;;;;3.47;1.95;;;22.70;83.60;;;;;;6206851;28;88984;-68
2023/10/15 07:16:34;;;;;;;4.75;2.15;;;22.70;83.40;;;;;;6220964;28;88967;-68
2023/10/15 07:19:36;;;;;;;4.78;2.40;;;22.70;83.30;;;;;;6229569;28;89863;-68
2023/10/15 07:22:39;;;;;;;3.88;2.13;;;22.70;83.10;;;;;;6206361;28;88053;-68
2023/10/15 07:25:42;;;;;;;4.80;2.20;;;22.70;83.20;;;;;;6218838;28;87913;-68
2023/10/15 07:28:44;;;;;;;4.68;2.30;;;22.70;83.10;;;;;;6222398;28;89008;-68
2023/10/15 07:31:46;;;;;;;3.90;2.17;;;22.70;83.30;;;;;;6221748;28;89037;-68
2023/10/15 07:34:48;;;;;;;4.00;2.22;;;22.70;83.20;;;;;;6213209;28;88968;-68
2023/10/15 07:37:52;;;;;;;4.05;2.15;;;22.70;83.20;;;;;;6207159;28;89086;-68
2023/10/15 07:40:55;;;;;;;4.60;2.58;;;22.70;83.00;;;;;;6215533;28;88263;-66
2023/10/15 07:43:57;;;;;;;4.00;2.25;;;22.70;83.00;;;;;;6227358;28;89355;-66
2023/10/15 07:46:59;;;;;;;3.40;2.30;;;22.70;83.30;;;;;;6208212;28;88991;-66
2023/10/15 07:50:01;;;;;;;4.60;2.53;;;22.70;83.40;;;;;;6218345;28;90486;-66
2023/10/15 07:53:04;;;;;;;5.13;2.70;;;22.60;83.30;;;;;;6205208;28;89023;-66
2023/10/15 07:56:07;;;;;;;2.67;1.88;;;22.60;83.00;;;;;;6225088;28;89349;-69
2023/10/15 07:59:09;;;;;;;3.13;2.00;;;22.60;83.00;;;;;;6225716;28;87958;-68
2023/10/15 08:02:12;;;;;;;3.58;2.20;;;22.70;82.40;;;;;;6208961;28;89063;-69
2023/10/15 08:05:15;;;;;;;4.53;2.30;;;22.60;82.50;;;;;;6214874;28;89009;-69
2023/10/15 08:08:18;;;;;;;4.53;2.28;;;22.60;82.30;;;;;;6205741;28;89170;-69
2023/10/15 08:11:21;;;;;;;3.72;2.13;;;22.60;82.60;;;;;;6220274;28;88294;-69
2023/10/15 08:14:23;;;;;;;4.22;2.30;;;22.60;82.60;;;;;;6225504;28;89110;-69
2023/10/15 08:17:26;;;;;;;5.57;2.63;;;22.60;82.70;;;;;;6217770;28;89383;-69
2023/10/15 08:20:28;;;;;;;4.82;2.83;;;22.60;82.60;;;;;;6212269;28;89954;-67
2023/10/15 08:23:32;;;;;;;4.10;2.25;;;22.60;82.70;;;;;;6209861;28;89382;-66
2023/10/15 08:26:34;;;;;;;4.28;2.28;;;22.60;82.70;;;;;;6234126;28;89008;-66
2023/10/15 08:29:36;;;;;;;3.90;2.50;;;22.60;82.70;;;;;;6225461;28;87970;-66
2023/10/15 08:32:39;;;;;;;4.18;2.28;;;22.60;82.70;;;;;;6210195;28;87980;-66
2023/10/15 08:35:41;;;;;;;3.65;2.20;;;22.60;82.80;;;;;;6221266;28;89025;-66
2023/10/15 08:38:44;;;;;;;5.63;2.55;;;22.60;83.20;;;;;;6212602;28;89097;-66
2023/10/15 08:41:48;;;;;;;4.88;2.47;;;22.60;83.30;;;;;;6221984;28;88349;-66
2023/10/15 08:44:54;;;;;;;4.38;2.10;;;22.60;83.00;;;;;;6228657;28;88948;-66
2023/10/15 08:47:57;;;;;;;3.88;2.20;;;22.60;83.20;;;;;;6217837;28;89069;-66
2023/10/15 08:51:00;;;;;;;4.88;2.40;;;22.60;84.10;;;;;;6220626;28;89990;-69
2023/10/15 08:54:05;;;;;;;3.80;2.40;;;22.60;83.20;;;;;;6210868;28;89207;-69
2023/10/15 08:57:08;;;;;;;5.10;2.63;;;22.60;83.20;;;;;;6223642;28;89283;-69
2023/10/15 09:00:25;;;;;;;4.20;2.60;;;22.60;83.20;;;;;;6221408;28;89004;-69
2023/10/15 09:03:27;;;;;;;3.88;2.38;;;22.60;82.90;;;;;;6209699;28;88122;-66
2023/10/15 09:06:31;;;;;;;4.20;2.38;;;22.60;82.80;;;;;;6220630;28;89066;-66
2023/10/15 09:09:34;;;;;;;4.97;2.95;;;22.60;82.90;;;;;;6215141;28;89043;-66
2023/10/15 09:12:36;;;;;;;4.68;2.50;;;22.60;82.80;;;;;;6233438;28;87145;-66
2023/10/15 09:15:39;;;;;;;3.90;2.50;;;22.60;82.80;;;;;;6220973;28;89040;-66
2023/10/15 09:18:43;;;;;;;5.13;2.60;;;22.50;82.80;;;;;;6227418;28;89083;-66
2023/10/15 09:21:46;;;;;;;5.10;3.08;;;22.60;82.60;;;;;;6221955;28;90089;-67
2023/10/15 09:24:49;;;;;;;5.55;3.05;;;22.60;82.70;;;;;;6217274;28;89200;-66
2023/10/15 09:27:54;;;;;;;4.82;2.40;;;22.60;82.70;;;;;;6223887;28;89093;-66
2023/10/15 09:31:04;;;;;;;5.45;3.35;;;22.60;82.90;;;;;;6224393;28;89031;-67
2023/10/15 09:34:11;;;;;;;6.97;3.10;;;22.50;82.90;;;;;;6218337;28;89105;-66
2023/10/15 09:37:15;;;;;;;6.18;3.10;;;22.60;82.90;;;;;;6215975;28;89143;-66
2023/10/15 09:40:20;;;;;;;6.05;3.45;;;22.50;82.50;;;;;;6227762;28;89247;-66
2023/10/15 09:43:23;;;;;;;4.13;2.65;;;22.50;82.50;;;;;;6213294;28;88286;-66
2023/10/15 09:46:26;;;;;;;4.88;2.90;;;22.60;82.50;;;;;;6219886;28;88790;-67
2023/10/15 09:49:31;;;;;;;5.53;2.90;;;22.50;82.50;;;;;;6211740;28;89474;-66
2023/10/15 09:52:34;;;;;;;5.00;3.17;;;22.60;82.00;;;;;;6210776;28;89974;-66
2023/10/15 09:55:40;;;;;;;6.85;3.58;;;22.50;81.60;;;;;;6214823;28;88162;-66
2023/10/15 09:58:42;;;;;;;4.55;2.88;;;22.50;82.20;;;;;;6229955;28;90737;-66
2023/10/15 10:01:51;;;;;;;5.57;2.88;;;22.50;82.00;;;;;;6217028;28;89399;-67
2023/10/15 10:05:17;;;;;;;5.97;3.25;;;22.50;81.80;;;;;;6214905;28;88599;-66
2023/10/15 10:08:33;;;;;;;5.65;3.47;;;22.50;81.90;;;;;;6221254;28;89177;-66
2023/10/15 10:11:52;;;;;;;4.38;3.25;;;22.50;81.90;;;;;;6214720;28;89005;-66
2023/10/15 10:15:17;;;;;;;7.50;3.63;;;22.50;82.20;;;;;;6212968;28;87203;-66
2023/10/15 10:18:21;;;;;;;5.78;3.55;;;22.50;81.30;;;;;;6212251;28;89082;-66
2023/10/15 10:21:29;;;;;;;6.60;3.63;;;22.50;82.20;;;;;;6210190;28;89085;-66
2023/10/15 10:24:53;;;;;;;6.05;3.38;;;22.50;82.20;;;;;;6219452;28;90281;-66
2023/10/15 10:28:08;;;;;;;6.53;3.85;;;22.50;81.60;;;;;;6218245;28;89076;-66
2023/10/15 10:31:11;;;;;;;7.18;3.75;;;22.50;81.30;;;;;;6214622;28;89215;-66
2023/10/15 10:34:14;;;;;;;6.47;3.10;;;22.50;81.00;;;;;;6218729;28;88003;-66
2023/10/15 10:37:23;;;;;;;4.78;3.20;;;22.50;80.40;;;;;;6219045;28;87920;-66
2023/10/15 10:40:45;;;;;;;4.78;3.20;;;22.50;80.50;;;;;;6218690;28;89044;-66
2023/10/15 10:43:49;;;;;;;6.82;3.15;;;22.50;80.40;;;;;;6213217;28;88791;-66
2023/10/15 10:46:52;;;;;;;6.10;3.53;;;22.50;80.60;;;;;;6215300;28;88428;-66
2023/10/15 10:49:59;;;;;;;5.00;2.85;;;22.50;80.00;;;;;;6210100;28;89016;-66
2023/10/15 10:53:13;;;;;;;5.88;3.22;;;22.50;80.00;;;;;;6207026;28;89020;-66
2023/10/15 10:56:16;;;;;;;5.35;2.88;;;22.50;80.30;;;;;;6219192;28;90473;-66
2023/10/15 10:59:20;;;;;;;5.68;2.97;;;22.50;80.30;;;;;;6225548;28;89445;-66
2023/10/15 11:02:23;;;;;;;4.35;2.40;;;22.50;80.30;;;;;;6211415;28;89129;-66
2023/10/15 11:05:26;;;;;;;4.88;2.75;;;22.40;80.10;;;;;;6213907;28;89004;-66
2023/10/15 11:08:28;;;;;;;6.45;3.15;;;22.40;80.00;;;;;;6229061;28;89072;-67
2023/10/15 11:11:30;;;;;;;4.70;2.50;;;22.40;79.90;;;;;;6209307;28;88390;-67
2023/10/15 11:14:34;;;;;;;5.75;2.80;;;22.40;79.60;;;;;;6207271;28;89088;-66
2023/10/15 11:17:36;;;;;;;6.20;2.90;;;22.50;78.90;;;;;;6227206;28;88399;-66
2023/10/15 11:20:39;;;;;;;5.50;2.80;;;22.40;79.30;;;;;;6221515;28;89106;-67
2023/10/15 11:23:41;;;;;;;4.55;2.50;;;22.40;80.00;;;;;;6206463;28;89400;-67
2023/10/15 11:26:44;;;;;;;5.25;2.40;;;22.40;80.00;;;;;;6221584;28;90002;-66
2023/10/15 11:29:48;;;;;;;4.50;2.50;;;22.40;79.80;;;;;;6220858;28;89469;-66
2023/10/15 11:32:51;;;;;;;4.18;2.30;;;22.40;79.30;;;;;;6221432;28;89042;-66
2023/10/15 11:35:55;;;;;;;4.03;2.28;;;22.40;78.90;;;;;;6212933;28;88987;-66
2023/10/15 11:38:59;;;;;;;4.97;2.50;;;22.40;79.20;;;;;;6211519;28;89179;-66
2023/10/15 11:42:03;;;;;;;4.53;2.13;;;22.40;78.60;;;;;;6217827;28;88717;-66
2023/10/15 11:45:16;;;;;;;4.78;2.45;;;22.40;79.00;;;;;;6215597;28;89058;-66
2023/10/15 11:48:21;;;;;;;5.22;2.53;;;22.40;79.20;;;;;;6219045;28;88836;-66
2023/10/15 11:51:25;;;;;;;4.32;2.20;;;22.40;79.40;;;;;;6209118;28;89171;-67
2023/10/15 11:54:29;;;;;;;4.35;2.33;;;22.30;79.30;;;;;;6218815;28;89019;-67
2023/10/15 11:57:39;;;;;;;5.03;2.67;;;22.30;79.60;;;;;;6228352;28;90186;-67
2023/10/15 12:00:42;;;;;;;6.25;3.03;;;22.30;80.10;;;;;;6212911;28;89290;-67
2023/10/15 12:03:45;;;;;;;6.18;2.80;;;22.30;80.00;;;;;;6225162;28;87957;-67
2023/10/15 12:06:47;;;;;;;4.65;2.60;;;22.30;79.70;;;;;;6220962;28;89088;-67
2023/10/15 12:09:50;;;;;;;6.45;2.30;;;22.30;80.30;;;;;;6234708;28;89101;-66
2023/10/15 12:12:52;;;;;;;4.65;2.35;;;22.30;80.30;;;;;;6220834;28;88053;-67
2023/10/15 12:15:55;;;;;;;4.15;2.22;;;22.30;79.30;;;;;;6232092;28;89117;-66
2023/10/15 12:18:57;;;;;;;6.30;2.75;;;22.30;79.60;;;;;;6213665;28;88316;-66
2023/10/15 12:21:59;;;;;;;3.53;2.00;;;22.30;79.60;;;;;;6213455;28;89135;-66
2023/10/15 12:25:01;;;;;;;4.55;2.25;;;22.20;79.10;;;;;;6222641;28;89591;-66
2023/10/15 12:28:04;;;;;;;3.95;2.08;;;22.20;79.40;;;;;;6210720;28;89903;-66
2023/10/15 12:31:08;;;;;;;3.53;2.00;;;22.20;79.60;;;;;;6230689;28;88968;-66
2023/10/15 12:34:11;;;;;;;3.28;2.00;;;22.20;79.60;;;;;;6213901;28;89049;-66
2023/10/15 12:37:14;;;;;;;3.35;2.15;;;22.20;79.80;;;;;;6220462;28;88221;-66
2023/10/15 12:40:21;;;;;;;5.05;2.70;;;22.20;79.80;;;;;;6220349;28;89102;-66
2023/10/15 12:43:23;;;;;;;3.60;2.33;;;22.20;79.90;;;;;;6225617;28;89110;-66
2023/10/15 12:46:29;;;;;;;3.28;2.25;;;22.20;79.80;;;;;;6223830;28;89074;-66
2023/10/15 12:49:31;;;;;;;3.88;2.55;;;22.20;80.10;;;;;;6211465;28;88432;-66
2023/10/15 12:52:34;;;;;;;4.00;2.67;;;22.20;80.20;;;;;;6227990;28;89075;-66
2023/10/15 12:55:36;;;;;;;4.75;2.80;;;22.20;80.20;;;;;;6227808;28;89055;-66
2023/10/15 12:58:38;;;;;;;3.30;2.60;;;22.20;80.40;;;;;;6214265;28;90058;-66
2023/10/15 13:01:42;;;;;;;4.97;3.10;;;22.20;80.60;;;;;;6214590;28;88839;-66
2023/10/15 13:04:46;;;;;;;6.00;3.28;;;22.20;80.80;;;;;;6214381;28;89178;-66
2023/10/15 13:07:49;;;;;;;5.53;3.17;;;22.20;80.80;;;;;;6215028;28;87975;-66
2023/10/15 13:10:51;;;;;;;3.97;3.03;;;22.20;81.10;;;;;;6222828;28;89237;-66
2023/10/15 13:13:54;;;;;;;3.97;2.95;;;22.20;81.10;;;;;;6216023;28;88921;-66
2023/10/15 13:16:58;;;;;;;3.63;3.00;;;22.20;81.30;;;;;;6226136;28;89327;-66
2023/10/15 13:20:05;;;;;;;4.10;3.05;;;22.20;81.30;;;;;;6211209;28;88657;-66
2023/10/15 13:23:08;;;;;;;3.15;2.70;;;22.20;81.50;;;;;;6228820;28;89300;-66
2023/10/15 13:26:11;;;;;;;5.13;3.20;;;22.20;81.30;;;;;;6217567;28;88713;-66
2023/10/15 13:29:15;;;;;;;4.20;3.30;;;22.20;81.30;;;;;;6212103;28;88940;-66
2023/10/15 13:32:19;;;;;;;4.60;3.60;;;22.20;81.50;;;;;;6220928;28;87979;-66
2023/10/15 13:35:23;;;;;;;4.97;3.45;;;22.20;81.30;;;;;;6220531;28;88527;-66
2023/10/15 13:38:27;;;;;;;4.20;3.25;;;22.20;81.30;;;;;;6217339;28;87825;-66
2023/10/15 13:41:29;;;;;;;4.03;3.10;;;22.20;81.50;;;;;;6218769;28;88122;-66
2023/10/15 13:44:32;;;;;;;4.90;3.30;;;22.20;81.60;;;;;;6222347;28;88932;-66
2023/10/15 13:47:38;;;;;;;4.20;3.22;;;22.20;81.30;;;;;;6221810;28;88043;-66
2023/10/15 13:50:41;;;;;;;4.28;3.33;;;22.10;81.30;;;;;;6208796;28;87231;-67
2023/10/15 13:53:45;;;;;;;3.97;3.42;;;22.10;81.40;;;;;;6207554;28;88931;-66
2023/10/15 13:56:49;;;;;;;4.15;3.35;;;22.10;81.50;;;;;;6222115;28;88050;-66
2023/10/15 13:59:52;;;;;;;3.95;3.50;;;22.10;81.80;;;;;;6208067;28;89068;-66
2023/10/15 14:02:57;;;;;;;4.78;3.42;;;22.10;81.80;;;;;;6216403;28;89484;-66
2023/10/15 14:06:02;;;;;;;3.60;3.20;;;22.10;81.60;;;;;;6210442;28;88538;-66
2023/10/15 14:09:08;;;;;;;4.15;3.35;;;22.10;81.80;;;;;;6230210;28;88066;-66
2023/10/15 14:12:11;;;;;;;4.78;3.33;;;22.10;82.00;;;;;;6231216;28;89074;-66
2023/10/15 14:15:16;;;;;;;3.70;3.25;;;22.10;81.80;;;;;;6226564;28;87116;-66
2023/10/15 14:18:21;;;;;;;4.18;3.25;;;22.10;81.50;;;;;;6226530;28;89373;-66
2023/10/15 14:21:24;;;;;;;5.15;3.40;;;22.10;81.50;;;;;;6211496;28;86406;-67
2023/10/15 14:24:28;;;;;;;3.90;3.17;;;22.10;81.60;;;;;;6221335;28;88837;-66
2023/10/15 14:27:32;;;;;;;3.63;2.90;;;22.10;81.70;;;;;;6215275;28;88084;-67
2023/10/15 14:30:35;;;;;;;4.13;3.10;;;22.10;81.50;;;;;;6225783;28;88967;-66
2023/10/15 14:33:40;;;;;;;4.60;3.40;;;22.10;81.60;;;;;;6212772;28;87877;-66
2023/10/15 14:36:47;;;;;;;5.32;3.25;;;22.10;81.50;;;;;;6217297;28;88015;-67
2023/10/15 14:39:51;;;;;;;3.75;2.92;;;22.10;81.60;;;;;;6218762;28;90389;-67
2023/10/15 14:42:55;;;;;;;5.43;3.55;;;22.10;81.60;;;;;;6211833;28;88070;-67
2023/10/15 14:46:00;;;;;;;3.42;3.00;;;22.10;81.30;;;;;;6223859;28;88007;-66
2023/10/15 14:49:05;;;;;;;3.60;3.08;;;22.10;81.50;;;;;;6212125;28;88073;-66
2023/10/15 14:52:09;;;;;;;4.20;2.90;;;22.10;81.60;;;;;;6211240;28;86280;-66
2023/10/15 14:55:12;;;;;;;5.00;2.80;;;22.10;80.60;;;;;;6213899;28;87979;-69
2023/10/15 14:58:16;;;;;;;4.68;3.08;;;22.00;80.50;;;;;;6211462;28;88541;-69
2023/10/15 15:01:20;;;;;;;5.13;2.80;;;22.00;79.70;;;;;;6228784;28;88950;-69
2023/10/15 15:04:28;;;;;;;2.42;2.17;;;22.00;80.00;;;;;;6207090;28;87969;-69
2023/10/15 15:07:31;;;;;;;3.03;2.50;;;22.00;80.40;;;;;;6217925;28;88055;-70
2023/10/15 15:10:36;;;;;;;3.58;2.60;;;22.00;80.30;;;;;;6219490;28;88164;-69
2023/10/15 15:13:40;;;;;;;2.63;2.40;;;22.00;80.30;;;;;;6216671;28;87994;-69
2023/10/15 15:16:44;;;;;;;2.78;2.28;;;21.90;80.40;;;;;;6213571;28;88840;-69
2023/10/15 15:19:49;;;;;;;3.47;2.35;;;22.00;80.30;;;;;;6217424;28;87838;-69
2023/10/15 15:22:54;;;;;;;3.10;2.40;;;22.00;80.30;;;;;;6229552;28;86328;-69
2023/10/15 15:26:02;;;;;;;3.90;2.33;;;22.00;80.30;;;;;;6225212;28;88118;-69
2023/10/15 15:29:06;;;;;;;2.85;2.20;;;21.90;80.20;;;;;;6228415;28;87985;-69
2023/10/15 15:32:10;;;;;;;3.10;2.33;;;21.90;80.10;;;;;;6219270;28;89186;-66
2023/10/15 15:35:15;;;;;;;6.05;3.30;;;22.00;80.10;;;;;;6214313;28;87711;-66
2023/10/15 15:38:19;;;;;;;3.80;2.50;;;21.90;80.20;;;;;;6220845;28;87879;-66
2023/10/15 15:41:24;;;;;;;3.30;2.30;;;22.00;80.50;;;;;;6220776;28;87115;-66
2023/10/15 15:44:28;;;;;;;3.75;2.50;;;21.90;80.20;;;;;;6225423;28;87309;-66
2023/10/15 15:47:32;;;;;;;4.47;2.42;;;21.90;80.20;;;;;;6205506;28;88266;-66
2023/10/15 15:50:38;;;;;;;3.20;2.17;;;21.90;80.50;;;;;;6218632;28;88360;-66
2023/10/15 15:53:42;;;;;;;3.10;2.33;;;21.90;80.60;;;;;;6206865;28;87231;-66
2023/10/15 15:56:46;;;;;;;3.30;2.30;;;22.00;81.10;;;;;;6223301;28;87081;-66
2023/10/15 15:59:51;;;;;;;3.22;2.30;;;22.00;81.10;;;;;;6225763;28;87359;-66